Terminal Aerodrome Forecast
Issued by NWS

Home | Current Version | Previous Version | Text Only | Print | Product List | Glossary On
Versions: 1 2 3 4 5 6 7 8 9 10 11 12 13 14
000
FTUS42 TJSJ 211100
TAFJPS
TAF
TJPS 211125Z 2112/2212 11005KT P6SM FEW030 SCT060
     FM211630 12010KT P6SM VCTS SCT030CB SCT060
      TEMPO 2117/2120 4SM SHRA BKN030
     FM212230 05012KT P6SM VCSH SCT020 BKN040
      AMD NOT SKED 2112/2203=

USA.gov is the U.S. government's official web portal to all federal, state and local government web resources and services.